Time;durP1;ratioP1;P1;durP2;ratioP2;P2;SDS_P1;SDS_P2;PMS_P1;PMS_P2;Temp;Humidity;BMP_temperature;BMP_pressure;BME280_temperature;BME280_humidity;BME280_pressure;Samples;Min_cycle;Max_cycle;Signal;HPM_P1;HPM_P2
2023/07/25 00:00:01;;;;;;;0.50;0.40;;;;;;;25.65;64.43;95176.47;5092062;28;20454;-49
2023/07/25 00:02:30;;;;;;;2.20;0.70;;;;;;;25.71;64.21;95172.28;5092650;28;20472;-49
2023/07/25 00:04:58;;;;;;;0.60;0.47;;;;;;;25.63;64.33;95172.56;5093203;28;20567;-49
2023/07/25 00:07:27;;;;;;;0.53;0.40;;;;;;;25.70;64.02;95178.09;5091875;28;20432;-49
2023/07/25 00:09:55;;;;;;;0.60;0.50;;;;;;;25.65;64.48;95179.19;5093099;28;20466;-49
2023/07/25 00:12:24;;;;;;;0.60;0.60;;;;;;;25.45;63.04;95168.81;5072455;28;20429;-50
2023/07/25 00:14:52;;;;;;;1.20;0.60;;;;;;;25.10;64.89;95160.94;5072210;28;20449;-49
2023/07/25 00:17:22;;;;;;;1.87;0.70;;;;;;;25.32;65.62;95165.53;5072240;28;20440;-49
2023/07/25 00:19:51;;;;;;;0.60;0.50;;;;;;;25.18;65.50;95120.00;5071998;28;20442;-49
2023/07/25 00:22:19;;;;;;;0.70;0.50;;;;;;;25.46;65.70;95157.59;5072222;28;20498;-49
2023/07/25 00:24:48;;;;;;;0.50;0.30;;;;;;;25.21;63.44;95159.94;5071979;28;20481;-49
2023/07/25 00:27:16;;;;;;;1.03;0.93;;;;;;;24.93;65.87;95156.81;5071723;28;20452;-49
2023/07/25 00:29:46;;;;;;;0.50;0.30;;;;;;;25.05;66.74;95163.94;5071804;28;20451;-49
2023/07/25 00:32:14;;;;;;;3.40;0.60;;;;;;;25.23;66.59;95165.00;5071910;28;20438;-49
2023/07/25 00:34:44;;;;;;;2.20;0.70;;;;;;;25.30;66.42;95156.97;5072371;28;20434;-50
2023/07/25 00:37:13;;;;;;;1.00;0.60;;;;;;;25.27;67.12;95166.59;5071838;28;20452;-49
2023/07/25 00:39:41;;;;;;;0.40;0.20;;;;;;;25.18;67.73;95168.81;5071458;28;20448;-49
2023/07/25 00:42:09;;;;;;;0.40;0.30;;;;;;;25.24;67.85;95172.78;5071966;28;20442;-49
2023/07/25 00:44:38;;;;;;;0.70;0.30;;;;;;;25.35;67.89;95172.16;5071974;28;20909;-49
2023/07/25 00:47:06;;;;;;;0.57;0.57;;;;;;;25.23;67.88;95167.72;5071950;28;20450;-49
2023/07/25 00:49:36;;;;;;;0.70;0.40;;;;;;;25.29;67.61;95168.97;5071572;28;20946;-49
2023/07/25 00:52:06;;;;;;;0.60;0.60;;;;;;;25.37;67.77;95167.16;5071774;28;20841;-49
2023/07/25 00:54:34;;;;;;;1.00;0.40;;;;;;;25.34;68.26;95168.66;5071851;28;20426;-49
2023/07/25 00:57:03;;;;;;;0.70;0.40;;;;;;;25.41;68.24;95166.03;5071659;28;20838;-49
2023/07/25 00:59:32;;;;;;;2.00;0.27;;;;;;;25.33;68.24;95163.59;5072101;28;20457;-49
2023/07/25 01:02:00;;;;;;;0.73;0.40;;;;;;;24.75;68.40;95082.53;5071517;28;20447;-49
2023/07/25 01:04:29;;;;;;;1.10;0.47;;;;;;;25.34;69.51;95167.88;5071535;28;20469;-49
2023/07/25 01:06:58;;;;;;;0.87;0.87;;;;;;;25.14;70.17;95172.63;5071516;28;20438;-49
2023/07/25 01:09:38;;;;;;;0.50;0.30;;;;;;;25.10;71.04;95183.41;5071964;28;20931;-49
2023/07/25 01:12:08;;;;;;;1.23;0.70;;;;;;;25.09;70.68;95164.81;5071812;28;21016;-49
2023/07/25 01:14:38;;;;;;;0.90;0.70;;;;;;;25.12;71.47;95180.34;5071584;28;20472;-50
2023/07/25 01:17:10;;;;;;;1.17;0.30;;;;;;;25.20;71.19;95182.00;5071392;28;20485;-49
2023/07/25 01:19:40;;;;;;;0.50;0.40;;;;;;;25.24;71.58;95185.56;5071397;28;20909;-48
2023/07/25 01:22:10;;;;;;;1.93;0.70;;;;;;;25.13;71.53;95182.69;5071676;28;20456;-49
2023/07/25 01:24:43;;;;;;;1.43;0.40;;;;;;;24.92;73.01;95185.06;5071425;28;20469;-49
2023/07/25 01:27:11;;;;;;;0.40;0.37;;;;;;;24.99;72.73;95185.19;5071359;28;20442;-49
2023/07/25 01:29:40;;;;;;;2.30;0.50;;;;;;;24.94;72.92;95190.94;5075085;28;20490;-49
2023/07/25 01:32:09;;;;;;;3.90;0.40;;;;;;;24.87;73.47;95179.94;5091836;28;20448;-49
2023/07/25 01:34:38;;;;;;;0.60;0.40;;;;;;;24.92;73.58;95181.59;5091061;28;20658;-49
2023/07/25 01:37:08;;;;;;;0.90;0.90;;;;;;;24.96;74.15;95177.00;5092657;28;20444;-56
2023/07/25 01:39:36;;;;;;;0.50;0.40;;;;;;;25.01;73.62;95180.19;5095312;28;20432;-49
2023/07/25 01:42:07;;;;;;;0.50;0.33;;;;;;;24.92;73.54;95179.63;5095287;28;20433;-49
2023/07/25 01:44:35;;;;;;;0.60;0.60;;;;;;;24.92;74.08;95176.16;5095340;28;20993;-49
2023/07/25 01:47:04;;;;;;;1.20;0.73;;;;;;;24.91;74.13;95178.09;5095720;28;20439;-49
2023/07/25 01:49:32;;;;;;;1.23;0.40;;;;;;;24.81;74.50;95177.91;5062285;28;20943;-49
2023/07/25 01:52:01;;;;;;;3.07;0.40;;;;;;;24.60;74.83;95175.59;5074945;28;20437;-49
2023/07/25 01:54:29;;;;;;;3.50;1.17;;;;;;;24.50;76.46;95181.63;5075060;28;20434;-49
2023/07/25 01:56:57;;;;;;;0.40;0.30;;;;;;;24.68;76.34;95177.28;5074948;28;20441;-49
2023/07/25 01:59:29;;;;;;;0.50;0.30;;;;;;;24.75;76.01;95179.31;5074896;28;20807;-49
2023/07/25 02:01:57;;;;;;;3.10;0.40;;;;;;;24.76;76.16;95180.91;5075171;28;20442;-49
2023/07/25 02:04:26;;;;;;;0.50;0.40;;;;;;;24.73;76.21;95176.19;5074827;28;20992;-49
2023/07/25 02:06:54;;;;;;;0.50;0.30;;;;;;;24.76;75.84;95181.69;5074547;28;20950;-50
2023/07/25 02:09:23;;;;;;;0.73;0.53;;;;;;;24.74;75.50;95186.69;5073950;28;20441;-49
2023/07/25 03:54:08;;;;;;;1.10;0.60;;;;;;;23.75;95.37;95214.59;5129747;27;20549;-49
2023/07/25 03:56:37;;;;;;;0.40;0.30;;;;;;;23.78;93.56;95211.16;5130163;27;20528;-50
2023/07/25 03:59:05;;;;;;;1.10;1.00;;;;;;;24.03;91.75;95211.66;5129195;27;20439;-50
2023/07/25 04:01:34;;;;;;;1.00;0.90;;;;;;;23.86;91.92;95207.44;5129464;27;20439;-50
2023/07/25 04:04:02;;;;;;;1.10;1.10;;;;;;;24.10;89.44;95211.84;5129308;28;20450;-50
2023/07/25 04:06:31;;;;;;;7.60;1.20;;;;;;;24.21;88.37;95209.34;5119603;28;20448;-50
2023/07/25 04:09:00;;;;;;;3.13;0.80;;;;;;;24.01;90.68;95208.50;5125762;28;20432;-50
2023/07/25 04:11:29;;;;;;;1.30;0.67;;;;;;;23.93;91.49;95215.72;5129510;27;20894;-49
2023/07/25 04:13:58;;;;;;;1.00;1.00;;;;;;;24.00;91.69;95212.38;5128975;28;20477;-49
2023/07/25 04:16:26;;;;;;;1.00;0.80;;;;;;;24.19;90.04;95208.88;5129273;28;20975;-49
2023/07/25 04:18:55;;;;;;;1.60;1.60;;;;;;;24.15;90.62;95214.25;5129274;28;20460;-49
2023/07/25 04:21:23;;;;;;;1.27;0.87;;;;;;;24.31;88.75;95211.47;5128902;28;20788;-49
2023/07/25 04:23:51;;;;;;;0.77;0.70;;;;;;;24.36;89.42;95224.72;5128458;28;20478;-49
2023/07/25 04:26:20;;;;;;;0.50;0.40;;;;;;;24.42;87.92;95215.94;5128974;27;20431;-49
2023/07/25 04:28:49;;;;;;;3.60;0.50;;;;;;;24.35;87.78;95204.97;5128784;27;20439;-49
2023/07/25 04:31:18;;;;;;;1.80;0.47;;;;;;;24.55;87.11;95221.97;5128389;28;20935;-49
2023/07/25 04:33:46;;;;;;;0.80;0.50;;;;;;;24.66;86.06;95212.09;5129062;27;20808;-49
2023/07/25 04:36:14;;;;;;;0.93;0.60;;;;;;;24.28;85.58;95141.75;5128533;27;20488;-49
2023/07/25 04:38:43;;;;;;;0.70;0.60;;;;;;;24.61;85.18;95202.34;5128497;27;20443;-59
2023/07/25 04:41:11;;;;;;;0.90;0.80;;;;;;;24.59;86.18;95210.03;5102414;28;20443;-54
2023/07/25 04:43:39;;;;;;;0.50;0.37;;;;;;;24.52;87.00;95209.13;5128612;28;20844;-55
2023/07/25 04:46:09;;;;;;;1.00;0.90;;;;;;;24.52;88.34;95206.41;5128762;27;20955;-53
2023/07/25 04:48:37;;;;;;;0.50;0.40;;;;;;;24.38;89.91;95206.16;5128567;27;20948;-58
2023/07/25 04:51:05;;;;;;;0.50;0.50;;;;;;;24.13;91.63;95208.41;5128837;28;20459;-59
2023/07/25 04:53:35;;;;;;;1.20;0.80;;;;;;;24.41;91.82;95208.16;5122938;27;20532;-58
2023/07/25 04:56:03;;;;;;;1.30;1.20;;;;;;;22.73;96.46;95077.88;5115174;28;20544;-58
2023/07/25 04:58:32;;;;;;;3.10;2.20;;;;;;;23.20;100.00;95206.72;5101115;28;20438;-56
2023/07/25 05:01:00;;;;;;;1.67;1.57;;;;;;;23.29;100.00;95201.94;5114752;28;20447;-56
2023/07/25 05:03:30;;;;;;;3.30;1.83;;;;;;;23.75;100.00;95197.56;5114632;28;20475;-57
2023/07/25 05:05:58;;;;;;;3.90;0.97;;;;;;;23.46;100.00;95204.28;5114670;28;20501;-58
2023/07/25 05:08:27;;;;;;;5.13;1.50;;;;;;;23.46;100.00;95206.19;5114163;28;20420;-58
2023/07/25 05:10:55;;;;;;;4.10;1.13;;;;;;;23.68;99.58;95206.28;5114508;28;20509;-57
2023/07/25 05:13:23;;;;;;;0.70;0.60;;;;;;;24.13;94.61;95194.09;5114361;28;20475;-57
2023/07/25 05:15:52;;;;;;;3.57;1.40;;;;;;;24.13;94.13;95194.09;5114815;28;20497;-56
2023/07/25 05:18:20;;;;;;;1.20;0.80;;;;;;;24.41;92.30;95197.34;5114146;28;20931;-56
2023/07/25 05:20:50;;;;;;;1.60;1.30;;;;;;;24.53;90.76;95186.31;5114193;28;21009;-56
2023/07/25 05:23:18;;;;;;;2.03;1.77;;;;;;;24.27;92.43;95188.94;5114390;28;20475;-57
2023/07/25 05:25:47;;;;;;;4.60;1.17;;;;;;;23.80;96.29;95186.44;5114218;28;20515;-56
2023/07/25 05:28:16;;;;;;;0.87;0.87;;;;;;;23.74;96.15;95199.47;5114419;28;20467;-56
2023/07/25 05:30:44;;;;;;;0.70;0.70;;;;;;;24.03;95.16;95198.88;5114037;28;20463;-56
2023/07/25 05:33:12;;;;;;;3.07;1.50;;;;;;;24.21;92.73;95193.09;5114079;28;20436;-56
2023/07/25 05:35:41;;;;;;;4.30;1.00;;;;;;;24.76;89.81;95203.38;5114141;28;20512;-56
2023/07/25 05:38:10;;;;;;;1.23;0.90;;;;;;;25.20;85.66;95204.50;5114406;28;21092;-56
2023/07/25 05:40:39;;;;;;;1.53;1.43;;;;;;;25.35;85.00;95202.00;5113669;28;20448;-55
2023/07/25 05:43:07;;;;;;;2.73;1.00;;;;;;;25.46;84.07;95203.75;5113899;28;20495;-55
2023/07/25 05:45:35;;;;;;;0.70;0.70;;;;;;;25.75;81.47;95202.22;5113939;28;20462;-55
2023/07/25 05:48:04;;;;;;;0.90;0.80;;;;;;;25.27;82.36;95201.13;5113688;28;20458;-57
2023/07/25 05:50:33;;;;;;;8.23;1.10;;;;;;;24.90;83.27;95200.91;5113522;28;20957;-57
2023/07/25 05:53:01;;;;;;;6.10;1.60;;;;;;;24.97;82.94;95198.31;5113805;28;20550;-55
2023/07/25 05:55:31;;;;;;;1.00;0.90;;;;;;;25.64;79.88;95196.63;5113506;28;20505;-56
2023/07/25 05:57:59;;;;;;;0.60;0.60;;;;;;;25.42;79.34;95193.97;5113592;28;20538;-56
2023/07/25 06:00:27;;;;;;;1.83;1.73;;;;;;;25.29;78.99;95187.97;5113790;28;20489;-55
2023/07/25 06:02:56;;;;;;;0.90;0.90;;;;;;;25.62;79.36;95179.94;5113589;28;20510;-55
2023/07/25 06:05:24;;;;;;;0.90;0.90;;;;;;;26.21;76.36;95186.50;5112417;28;20471;-56
2023/07/25 06:07:53;;;;;;;2.00;1.80;;;;;;;26.26;75.54;95184.22;5113733;28;20935;-56
2023/07/25 06:10:21;;;;;;;4.00;2.27;;;;;;;26.34;75.19;95182.34;5113705;27;20809;-55
2023/07/25 06:12:51;;;;;;;4.97;1.33;;;;;;;26.65;73.78;95181.09;5113356;28;20454;-55
2023/07/25 06:15:19;;;;;;;2.33;2.23;;;;;;;26.21;73.60;95168.25;5113658;28;20523;-56
2023/07/25 06:17:48;;;;;;;2.80;2.00;;;;;;;26.32;72.90;95158.28;5113114;28;20925;-56
2023/07/25 06:20:16;;;;;;;3.40;0.60;;;;;;;26.76;71.66;95168.41;5112880;28;20522;-56
2023/07/25 06:22:45;;;;;;;1.53;0.90;;;;;;;27.03;69.96;95165.16;5113103;28;20443;-56
2023/07/25 06:25:15;;;;;;;2.40;2.30;;;;;;;27.13;68.93;95160.16;5112716;28;20772;-56
2023/07/25 06:27:43;;;;;;;1.80;1.27;;;;;;;27.16;68.00;95164.84;5112988;28;20443;-55
2023/07/25 06:30:13;;;;;;;1.03;1.03;;;;;;;27.26;68.36;95161.41;5113263;28;20435;-57
2023/07/25 06:32:42;;;;;;;1.10;0.90;;;;;;;27.44;67.49;95159.63;5112988;28;20442;-58
2023/07/25 06:35:10;;;;;;;1.93;0.80;;;;;;;28.05;67.02;95161.50;5112778;28;20439;-57
2023/07/25 06:37:39;;;;;;;0.60;0.40;;;;;;;28.68;67.61;95149.97;5112633;28;20447;-59
2023/07/25 06:40:08;;;;;;;4.50;1.30;;;;;;;28.53;63.42;95146.41;5113154;28;21044;-59
2023/07/25 06:42:36;;;;;;;1.90;1.70;;;;;;;28.70;63.26;95148.41;5112859;28;20932;-60
2023/07/25 06:45:05;;;;;;;1.40;1.30;;;;;;;28.70;63.22;95140.22;5112697;28;20540;-60
2023/07/25 06:47:35;;;;;;;0.40;0.40;;;;;;;29.52;61.70;95138.97;5113062;28;20428;-60
2023/07/25 06:50:04;;;;;;;2.60;1.57;;;;;;;29.37;60.81;95139.44;5112188;28;20952;-59
2023/07/25 06:52:32;;;;;;;1.03;1.03;;;;;;;29.23;61.13;95136.72;5112066;28;21070;-58
2023/07/25 06:55:00;;;;;;;0.87;0.87;;;;;;;29.61;59.72;95138.56;5112455;28;20443;-59
2023/07/25 06:57:29;;;;;;;1.10;0.63;;;;;;;30.15;58.15;95137.22;5112465;28;20427;-53
2023/07/25 06:59:57;;;;;;;0.80;0.70;;;;;;;30.37;57.44;95127.75;5112245;28;20432;-54
2023/07/25 07:02:26;;;;;;;1.00;0.83;;;;;;;30.12;57.08;95124.34;5112682;28;20440;-54
2023/07/25 07:04:56;;;;;;;0.87;0.87;;;;;;;30.74;57.22;95119.66;5112391;28;20564;-53
2023/07/25 07:07:25;;;;;;;0.77;0.77;;;;;;;31.04;55.86;95121.81;5112581;28;20458;-53
2023/07/25 07:09:53;;;;;;;0.93;0.93;;;;;;;30.68;55.77;95102.13;5112329;28;20437;-53
2023/07/25 07:12:21;;;;;;;1.27;0.90;;;;;;;31.04;55.27;95110.84;5112344;28;20432;-53
2023/07/25 07:14:50;;;;;;;0.70;0.40;;;;;;;31.47;53.29;95104.97;5105812;28;20468;-53
2023/07/25 07:17:19;;;;;;;1.10;1.00;;;;;;;31.47;55.10;95102.25;5111867;28;20432;-53
2023/07/25 07:19:47;;;;;;;1.00;1.00;;;;;;;31.88;53.28;95106.44;5099116;28;20518;-53
2023/07/25 07:22:17;;;;;;;1.53;1.13;;;;;;;32.16;51.83;95094.34;5111893;27;20447;-53
2023/07/25 07:24:45;;;;;;;0.60;0.50;;;;;;;32.23;51.93;95091.50;5111888;28;20471;-53
2023/07/25 07:27:14;;;;;;;2.60;0.80;;;;;;;32.44;51.86;95087.66;5112483;28;20484;-53
2023/07/25 07:29:42;;;;;;;0.80;0.80;;;;;;;32.84;51.60;95091.41;5098549;28;20442;-53
2023/07/25 07:32:10;;;;;;;0.63;0.63;;;;;;;33.19;49.57;95093.56;5111988;28;20439;-53
2023/07/25 07:34:39;;;;;;;0.60;0.60;;;;;;;33.00;49.87;95081.28;5085262;28;20464;-53
2023/07/25 07:37:07;;;;;;;0.60;0.60;;;;;;;32.75;49.76;95078.19;5112329;28;20500;-53
2023/07/25 07:39:39;;;;;;;1.60;0.90;;;;;;;32.89;49.67;95066.22;5111969;28;20481;-53
2023/07/25 07:42:07;;;;;;;1.13;1.03;;;;;;;33.38;50.63;95073.56;5112124;28;20443;-53
2023/07/25 07:44:36;;;;;;;0.70;0.70;;;;;;;33.42;48.78;95068.78;5112434;28;20470;-52
2023/07/25 07:47:06;;;;;;;3.87;1.20;;;;;;;33.62;49.69;95060.59;5111846;28;20511;-53
2023/07/25 07:49:34;;;;;;;0.93;0.80;;;;;;;33.46;50.57;95064.00;5111933;28;20431;-53
2023/07/25 07:52:03;;;;;;;2.03;1.93;;;;;;;33.06;50.58;95059.66;5111922;28;20462;-53
2023/07/25 07:54:48;;;;;;;0.93;0.90;;;;;;;33.22;49.68;95067.97;5111882;28;20441;-53
2023/07/25 07:57:16;;;;;;;10.97;1.73;;;;;;;33.34;50.61;95061.88;5111775;28;21020;-52
2023/07/25 07:59:45;;;;;;;0.60;0.60;;;;;;;33.10;48.47;94997.19;5111768;28;20487;-52
2023/07/25 08:02:13;;;;;;;1.20;0.80;;;;;;;33.60;48.57;95054.75;5111167;28;20492;-52
2023/07/25 08:04:42;;;;;;;1.53;1.43;;;;;;;33.33;49.10;95054.81;5111464;28;20471;-52
2023/07/25 08:07:11;;;;;;;1.10;1.00;;;;;;;33.07;48.52;95050.19;5085624;28;20843;-52
2023/07/25 08:09:39;;;;;;;1.67;1.57;;;;;;;33.41;49.03;95053.50;5111528;28;20464;-52
2023/07/25 08:12:09;;;;;;;3.17;1.13;;;;;;;34.04;49.45;95045.94;5111722;28;20443;-52
2023/07/25 08:14:37;;;;;;;2.60;1.70;;;;;;;33.88;47.10;95041.16;5111738;28;20443;-51
2023/07/25 08:17:06;;;;;;;1.50;1.40;;;;;;;34.12;47.70;95032.81;5111228;28;20454;-52
2023/07/25 08:19:34;;;;;;;1.00;0.97;;;;;;;34.74;47.93;95031.75;5111051;28;20439;-52
2023/07/25 08:22:03;;;;;;;0.50;0.50;;;;;;;35.24;45.78;95034.03;5111960;28;20438;-54
2023/07/25 08:24:32;;;;;;;1.20;0.70;;;;;;;35.23;45.35;95029.72;5111096;28;21006;-53
2023/07/25 08:27:00;;;;;;;0.60;0.60;;;;;;;35.34;45.46;95025.47;5111571;28;20438;-51
2023/07/25 08:29:30;;;;;;;3.43;1.87;;;;;;;35.97;45.04;95016.59;5113412;28;20590;-53
2023/07/25 08:31:58;;;;;;;6.63;1.90;;;;;;;35.34;42.03;95021.94;5115508;28;20438;-52
2023/07/25 08:34:27;;;;;;;1.23;1.13;;;;;;;34.89;44.19;95006.16;5115248;28;20431;-52
2023/07/25 08:36:55;;;;;;;1.40;1.30;;;;;;;34.67;43.77;95021.69;5115623;28;20958;-53
2023/07/25 08:39:23;;;;;;;1.33;1.23;;;;;;;34.15;44.19;95009.97;5115337;28;20453;-52
2023/07/25 08:41:53;;;;;;;2.70;1.13;;;;;;;34.47;44.45;95004.47;5115449;28;20193;-53
2023/07/25 08:44:23;;;;;;;3.43;1.43;;;;;;;34.15;45.20;94999.75;5094720;28;20479;-53
2023/07/25 08:46:54;;;;;;;1.00;0.93;;;;;;;34.33;43.69;94994.56;5108835;28;20438;-52
2023/07/25 08:49:24;;;;;;;1.80;1.60;;;;;;;34.81;45.23;94993.03;5115311;28;20472;-53
2023/07/25 08:51:54;;;;;;;0.90;0.90;;;;;;;34.56;44.05;94943.34;5114954;28;20434;-53
2023/07/25 08:54:29;;;;;;;1.00;0.67;;;;;;;35.50;43.66;94980.53;5114853;28;20991;-54
2023/07/25 08:56:58;;;;;;;1.10;1.00;;;;;;;35.58;43.78;94984.66;5113314;28;20520;-53
2023/07/25 08:59:26;;;;;;;2.03;1.13;;;;;;;35.77;42.48;94969.91;5114970;28;20200;-54
2023/07/25 09:01:56;;;;;;;2.90;1.53;;;;;;;35.22;42.69;94967.56;5114290;28;20477;-56
2023/07/25 09:04:26;;;;;;;2.83;2.73;;;;;;;35.77;42.50;94964.41;5114904;28;20252;-55
2023/07/25 09:06:55;;;;;;;0.83;0.57;;;;;;;36.28;42.74;94962.44;5114590;28;20439;-55
2023/07/25 09:09:24;;;;;;;0.90;0.50;;;;;;;36.79;43.30;94960.34;5115083;28;20223;-54
2023/07/25 09:11:54;;;;;;;0.73;0.60;;;;;;;36.76;40.79;94962.00;5114532;28;20201;-54
2023/07/25 09:14:22;;;;;;;1.13;1.13;;;;;;;36.59;42.05;94951.56;5114653;28;20224;-54
2023/07/25 09:16:51;;;;;;;6.23;2.37;;;;;;;36.47;41.95;94960.63;5114901;28;20188;-55
2023/07/25 09:19:21;;;;;;;4.50;2.60;;;;;;;36.90;40.94;94944.19;5114600;28;20232;-54
2023/07/25 09:21:50;;;;;;;3.87;0.90;;;;;;;36.73;42.23;94945.56;5114343;28;20195;-54
2023/07/25 09:24:18;;;;;;;1.10;1.08;;;;;;;37.67;40.65;94935.09;5114259;28;20199;-55
2023/07/25 09:26:51;;;;;;;1.13;1.02;;;;;;;37.53;39.95;94941.91;5114643;28;20275;-54
2023/07/25 09:29:26;;;;;;;0.65;0.57;;;;;;;38.60;39.32;94927.44;5114477;28;20230;-54
2023/07/25 09:31:55;;;;;;;1.45;1.35;;;;;;;38.25;39.61;94940.72;5114557;28;20253;-54
2023/07/25 09:34:25;;;;;;;0.85;0.85;;;;;;;38.43;40.74;94940.03;5113912;28;20197;-54
2023/07/25 09:36:54;;;;;;;1.73;1.63;;;;;;;38.26;39.10;94927.63;5114152;28;20231;-55
2023/07/25 09:39:22;;;;;;;2.05;0.88;;;;;;;37.93;38.94;94935.69;5113784;28;20200;-54
2023/07/25 09:41:52;;;;;;;1.25;1.20;;;;;;;37.78;39.31;94929.13;5114531;28;20714;-54
2023/07/25 09:44:20;;;;;;;1.15;0.60;;;;;;;37.75;40.20;94930.06;5113844;28;20204;-55
2023/07/25 09:46:54;;;;;;;1.33;1.25;;;;;;;37.89;41.22;94918.44;5114232;28;20228;-54
2023/07/25 09:49:23;;;;;;;2.10;0.77;;;;;;;38.57;41.11;94931.91;5114069;27;20231;-54
2023/07/25 09:52:04;;;;;;;0.50;0.40;;;;;;;39.31;38.19;94920.41;5113131;28;20204;-54
2023/07/25 09:54:32;;;;;;;0.82;0.50;;;;;;;39.19;38.09;94915.78;5114212;28;20232;-54
2023/07/25 09:57:01;;;;;;;5.32;0.50;;;;;;;38.95;38.65;94908.53;5113420;28;20285;-54
2023/07/25 09:59:30;;;;;;;1.35;1.27;;;;;;;39.24;37.65;94906.09;5113825;28;20232;-55
2023/07/25 10:01:59;;;;;;;0.73;0.65;;;;;;;38.83;38.50;94895.63;5113683;28;20197;-55
2023/07/25 10:04:27;;;;;;;2.80;0.65;;;;;;;39.01;38.54;94901.94;5114100;28;20225;-55
2023/07/25 10:07:00;;;;;;;1.65;0.60;;;;;;;39.31;38.29;94889.13;5113724;28;20189;-55
2023/07/25 10:09:30;;;;;;;3.08;0.68;;;;;;;39.49;38.48;94869.66;5113787;28;20259;-54
2023/07/25 10:11:58;;;;;;;1.67;1.58;;;;;;;39.93;37.75;94881.06;5113314;28;20201;-55
2023/07/25 10:14:27;;;;;;;0.90;0.60;;;;;;;39.69;38.49;94883.81;5113699;28;20189;-54
2023/07/25 10:16:55;;;;;;;2.03;0.50;;;;;;;40.20;40.54;94880.97;5113248;28;20709;-53
2023/07/25 10:19:23;;;;;;;0.77;0.70;;;;;;;40.55;38.01;94879.22;5112997;28;20662;-53
2023/07/25 10:21:54;;;;;;;1.15;1.15;;;;;;;40.17;38.61;94870.03;5113386;28;20197;-53
2023/07/25 10:24:23;;;;;;;1.10;0.90;;;;;;;39.65;39.95;94877.63;5112119;28;20630;-53
2023/07/25 10:26:56;;;;;;;0.90;0.90;;;;;;;40.35;37.56;94865.13;5113001;28;20583;-54
2023/07/25 10:29:41;;;;;;;0.90;0.55;;;;;;;40.86;36.32;94867.69;5112831;28;20225;-53
2023/07/25 10:32:13;;;;;;;2.33;1.00;;;;;;;40.17;37.55;94861.69;5111485;28;20209;-53
2023/07/25 10:34:47;;;;;;;2.50;1.52;;;;;;;40.14;36.92;94863.41;5113119;28;20250;-53
2023/07/25 10:37:28;;;;;;;1.00;1.00;;;;;;;40.24;37.28;94861.34;5112856;28;20217;-53
2023/07/25 10:40:11;;;;;;;8.57;0.50;;;;;;;40.37;36.65;94812.66;5113080;28;20739;-53
2023/07/25 10:42:49;;;;;;;0.60;0.60;;;;;;;41.27;36.19;94840.13;5112978;28;20201;-53
2023/07/25 10:45:51;;;;;;;0.70;0.52;;;;;;;41.59;34.89;94830.84;5112837;28;20200;-52
2023/07/25 10:48:37;;;;;;;0.70;0.50;;;;;;;41.50;35.93;94786.41;5112652;28;20254;-53
2023/07/25 10:51:07;;;;;;;1.20;0.60;;;;;;;41.50;35.99;94825.38;5112448;28;20236;-52
2023/07/25 10:53:36;;;;;;;0.63;0.63;;;;;;;41.69;36.67;94818.34;5112303;28;20229;-51
2023/07/25 10:56:25;;;;;;;1.27;0.93;;;;;;;41.56;35.59;94817.88;5112991;28;20255;-53
2023/07/25 10:59:09;;;;;;;4.68;0.73;;;;;;;41.66;36.85;94817.28;5106263;28;20216;-53
2023/07/25 11:01:43;;;;;;;0.77;0.77;;;;;;;41.90;35.25;94813.63;5112538;28;20207;-52
2023/07/25 11:04:26;;;;;;;0.50;0.50;;;;;;;42.21;34.73;94802.66;5112496;28;20188;-53
2023/07/25 11:06:56;;;;;;;0.60;0.60;;;;;;;41.19;35.67;94800.81;5112377;28;20268;-53
2023/07/25 11:09:25;;;;;;;0.50;0.50;;;;;;;41.59;34.95;94784.31;5112873;28;20588;-52
2023/07/25 11:11:56;;;;;;;4.43;1.20;;;;;;;42.14;33.56;94791.94;5112392;28;20232;-53
2023/07/25 11:14:27;;;;;;;0.93;0.93;;;;;;;42.39;33.88;94780.09;5112359;28;20881;-52
2023/07/25 11:16:55;;;;;;;0.60;0.60;;;;;;;42.67;33.39;94788.78;5112005;28;20702;-52
2023/07/25 11:19:27;;;;;;;0.30;0.30;;;;;;;42.87;32.81;94791.53;5112179;28;20193;-52
2023/07/25 11:21:56;;;;;;;0.40;0.40;;;;;;;42.99;32.24;94779.25;5112140;28;20251;-53
2023/07/25 11:24:24;;;;;;;0.70;0.70;;;;;;;41.54;34.25;94787.00;5111998;28;20273;-51
2023/07/25 11:26:53;;;;;;;4.03;1.15;;;;;;;41.24;33.58;94782.69;5112213;28;20201;-52
2023/07/25 11:29:22;;;;;;;1.00;1.00;;;;;;;41.60;33.40;94782.25;5111236;28;20192;-52
2023/07/25 11:31:52;;;;;;;3.33;1.10;;;;;;;41.34;33.03;94767.47;5111911;28;20193;-53
2023/07/25 11:34:21;;;;;;;6.85;1.23;;;;;;;41.66;33.02;94769.22;5112037;28;20188;-53
2023/07/25 11:36:49;;;;;;;1.40;0.68;;;;;;;41.10;29.96;94768.31;5111830;28;20216;-53
2023/07/25 11:39:19;;;;;;;0.73;0.70;;;;;;;41.90;29.84;94758.69;5111675;28;20196;-53
2023/07/25 11:41:47;;;;;;;0.52;0.50;;;;;;;42.22;27.07;94754.06;5111667;28;20197;-61
2023/07/25 11:44:17;;;;;;;0.68;0.68;;;;;;;42.12;26.30;94753.44;5111957;28;20193;-52
2023/07/25 11:46:47;;;;;;;0.60;0.40;;;;;;;42.36;25.11;94742.81;5112012;28;20255;-52
2023/07/25 11:49:18;;;;;;;0.57;0.57;;;;;;;43.09;24.24;94740.81;5111809;28;20287;-52
2023/07/25 11:52:07;;;;;;;0.30;0.30;;;;;;;43.21;23.29;94728.47;5111509;28;20237;-52
2023/07/25 11:54:36;;;;;;;0.40;0.40;;;;;;;42.56;25.50;94735.69;5111603;28;20207;-52
2023/07/25 11:57:06;;;;;;;1.30;1.20;;;;;;;42.67;24.02;94725.44;5111567;28;20267;-53
2023/07/25 11:59:40;;;;;;;0.75;0.45;;;;;;;42.62;23.93;94726.16;5112158;28;20196;-52
2023/07/25 12:02:09;;;;;;;0.52;0.52;;;;;;;42.66;24.02;94723.16;5111710;28;20189;-52
2023/07/25 12:04:44;;;;;;;0.40;0.40;;;;;;;42.78;23.42;94724.78;5114118;28;20776;-52
2023/07/25 12:07:13;;;;;;;0.35;0.35;;;;;;;42.93;23.28;94719.88;5089932;28;20662;-51
2023/07/25 12:09:50;;;;;;;3.50;0.55;;;;;;;42.69;22.71;94697.84;5115377;28;20196;-51
2023/07/25 12:12:19;;;;;;;0.60;0.52;;;;;;;42.42;22.75;94711.47;5116145;28;20193;-52
2023/07/25 12:14:55;;;;;;;0.40;0.30;;;;;;;42.63;23.59;94690.69;5115743;28;20232;-51
2023/07/25 12:17:23;;;;;;;0.40;0.40;;;;;;;42.57;23.78;94703.78;5115791;28;20238;-52
2023/07/25 12:19:57;;;;;;;2.15;0.40;;;;;;;41.95;23.46;94688.38;5115437;28;20276;-51
2023/07/25 12:22:26;;;;;;;9.82;1.33;;;;;;;41.47;23.50;94685.19;5115816;28;20196;-51
2023/07/25 12:24:54;;;;;;;0.50;0.30;;;;;;;41.40;23.88;94687.63;5115598;28;20227;-51
2023/07/25 12:27:22;;;;;;;0.57;0.57;;;;;;;41.26;23.74;94682.84;5115492;28;20192;-52
2023/07/25 12:29:51;;;;;;;0.30;0.28;;;;;;;41.30;24.12;94684.19;5115384;28;20197;-52
2023/07/25 12:32:19;;;;;;;0.90;0.90;;;;;;;41.42;24.18;94688.66;5115676;28;20329;-52
2023/07/25 12:34:48;;;;;;;2.33;0.90;;;;;;;41.18;23.84;94682.50;5089262;28;20280;-52
2023/07/25 12:37:18;;;;;;;1.67;1.10;;;;;;;40.89;23.76;94676.97;5115126;28;20209;-51
2023/07/25 12:39:47;;;;;;;5.85;1.30;;;;;;;40.45;23.48;94674.16;5115525;28;20228;-51
2023/07/25 12:42:15;;;;;;;0.50;0.38;;;;;;;40.82;24.10;94672.53;5114993;28;20219;-51
2023/07/25 12:44:43;;;;;;;6.95;0.65;;;;;;;40.94;23.37;94662.38;5114787;28;20727;-52
2023/07/25 12:47:11;;;;;;;0.50;0.50;;;;;;;40.89;23.70;94669.41;5114941;28;20254;-52
2023/07/25 12:49:40;;;;;;;0.73;0.73;;;;;;;40.58;22.63;94667.09;5115373;28;20236;-51
2023/07/25 12:52:08;;;;;;;0.40;0.40;;;;;;;40.78;22.67;94663.66;5115023;28;20274;-51
2023/07/25 12:54:38;;;;;;;0.85;0.73;;;;;;;40.41;22.54;94663.22;5115141;28;20228;-51
2023/07/25 12:57:07;;;;;;;3.03;0.70;;;;;;;40.15;23.32;94664.28;5114526;28;20213;-51
2023/07/25 12:59:35;;;;;;;0.50;0.32;;;;;;;40.05;23.13;94660.03;5115001;28;20705;-51
2023/07/25 13:02:03;;;;;;;0.55;0.35;;;;;;;40.45;22.50;94668.59;5114432;28;20591;-51
2023/07/25 13:04:32;;;;;;;1.02;0.52;;;;;;;40.10;21.73;94651.06;5114641;28;20205;-51
2023/07/25 13:07:01;;;;;;;0.77;0.77;;;;;;;40.81;21.86;94653.56;5114459;28;20291;-52
2023/07/25 13:09:30;;;;;;;0.60;0.60;;;;;;;40.72;22.89;94648.88;5114917;28;20572;-52
2023/07/25 13:11:59;;;;;;;4.22;0.63;;;;;;;40.37;22.66;94648.78;5114562;28;20272;-52
2023/07/25 13:14:27;;;;;;;0.77;0.63;;;;;;;40.75;24.04;94647.94;5113873;28;20803;-52
2023/07/25 13:16:56;;;;;;;0.73;0.73;;;;;;;40.03;22.59;94645.84;5114625;28;20215;-52
2023/07/25 13:19:25;;;;;;;0.93;0.60;;;;;;;40.49;22.82;94644.97;5114245;28;20645;-52
2023/07/25 13:21:53;;;;;;;2.67;0.45;;;;;;;40.15;23.85;94639.28;5114386;28;20715;-51
2023/07/25 13:24:21;;;;;;;1.52;0.80;;;;;;;40.56;25.25;94638.25;5114394;28;20651;-50
2023/07/25 13:26:49;;;;;;;6.70;0.70;;;;;;;41.05;23.69;94634.75;5114204;28;20205;-51